x

9449880 - Friday Harbor, Wa (frdw1) Weather Station

3:36am - Wed 17th Sep 2014 All times are PDT. -7 hours from GMT.

  • Wind
    2mph, 3mph gusts
  • Sea Temp 53°f
  • 空気 Temp 55°f
  • Sea Pressure 1010.1mb
  • 9449880 - Friday Harbor, Wa
  • 9449880 - Friday Harbor, Wa

More Historic Weather Station data

Upgrade to MSW Pro to gain access to the past 30 days of data for over 8000 Wavebouys and Weather Stations around the globe.

Join Pro

Comparision Forecast

View Surf forecast
   
Wed 09/17 3:36am 2 3 mph 1010.1mb 53f 55f
3:30am 3 5 mph 1010.2mb 53f 55f
3:24am 2 3 mph 1010.2mb 53f 55f
3:18am 2 3 mph 1010.3mb 53f 55f
3:12am 3 6 mph 1010.2mb 53f 55f
3:06am 5 6 mph 1010.2mb 53f 55f
3:00am 6 7 mph 1010.3mb 53f 55f
2:36am 5 8 mph 1010.4mb 53f 56f
2:30am 5 6 mph 1010.5mb 53f 56f
2:24am 3
mph
1010.4mb 53f 56f
2:18am 2 3 mph 1010.3mb 53f 56f
2:12am 2 3 mph 1010.5mb 53f 57f
2:06am 3 6 mph 1010.5mb 53f 57f
2:00am 2 6 mph 1010.5mb 53f 57f
1:36am 5 6 mph 1010.8mb 53f 57f
1:30am 3 6 mph 1010.9mb 53f 57f
1:24am 3 6 mph 1010.9mb 53f 57f
1:18am 2 3 mph 1010.9mb 53f 57f
1:12am 3
mph
1010.9mb 53f 57f
1:06am 2 3 mph 1010.9mb 53f 57f
1:00am 2 3 mph 1010.9mb 53f 57f
12:36am 5 6 mph 1010.8mb 53f 57f
12:30am 2
mph
1011mb 53f 57f
12:24am 1 2 mph 1010.9mb 53f 57f
12:18am  -  2 mph 1010.7mb 53f 58f
12:12am 3 6 mph 1010.9mb 53f 58f
12:06am 3 6 mph 1011mb 53f 58f
12:00am 5 7 mph 1011mb 53f 58f
Tue 09/16 11:36pm 6 7 mph 1011.1mb 53f 57f
11:30pm 5 7 mph 1011.1mb 53f 58f
11:24pm 6 8 mph 1011mb 53f 58f
11:18pm 6 9 mph 1011mb 53f 58f
11:12pm 7 9 mph 1011mb 53f 58f
11:06pm 8 10 mph 1011mb 53f 58f
11:00pm 3 7 mph 1010.9mb 53f 58f
10:36pm 2 5 mph 1010.7mb 53f 57f
10:30pm 3 5 mph 1010.7mb 53f 57f
10:24pm 2 3 mph 1010.7mb 53f 58f
10:18pm 2 5 mph 1010.7mb 53f 58f
10:12pm 2 5 mph 1010.7mb 53f 59f
10:06pm 2 3 mph 1010.7mb 53f 60f
10:00pm 2 3 mph 1010.7mb 53f 60f
9:36pm 3
mph
1010.8mb 53f 60f
9:30pm 3
mph
1010.8mb 53f 60f
9:24pm 1 2 mph 1010.7mb 53f 60f
9:18pm 2 3 mph 1010.7mb 53f 60f
9:12pm 3 5 mph 1010.7mb 53f 61f
9:06pm 6 8 mph 1010.8mb 53f 60f
9:00pm 6 8 mph 1010.8mb 53f 61f
8:36pm 5 6 mph 1010.8mb 53f 61f
8:30pm 6 9 mph 1010.8mb 53f 62f
8:24pm 9 11 mph 1010.8mb 53f 61f
8:18pm 8 10 mph 1010.8mb 53f 61f
8:12pm 7 9 mph 1010.7mb 53f 62f
8:06pm 7 10 mph 1010.7mb 53f 62f
8:00pm 7 9 mph 1010.6mb 53f 62f
7:36pm 11 14 mph 1010.6mb 53f 62f
7:30pm 11 16 mph 1010.6mb 53f 62f
7:24pm 11 15 mph 1010.6mb 53f 61f
7:18pm 9 14 mph 1010.6mb 53f 61f
7:12pm 8 10 mph 1010.7mb 53f 61f
7:06pm 8 9 mph 1010.7mb 53f 61f
7:00pm 5 7 mph 1010.7mb 53f 59f
6:36pm  -  1 mph 1010.7mb 53f 59f
6:30pm 2 3 mph 1010.7mb 53f 58f
6:24pm 2 6 mph 1010.8mb 53f 58f
6:18pm 3 7 mph 1010.8mb 53f 58f
6:12pm 3 7 mph 1010.8mb 53f 58f
6:06pm 2 6 mph 1010.8mb 53f 58f
6:00pm 2 6 mph 1010.8mb 53f 58f
5:36pm 5 8 mph 1011mb 53f 57f
5:30pm 7 9 mph 1011mb 53f 57f
5:24pm 3 7 mph 1011mb 53f 57f
5:18pm 5 7 mph 1010.9mb 53f 58f
5:12pm 6 8 mph 1010.9mb 53f 58f
5:06pm 7 8 mph 1011mb 53f 58f
5:00pm 7 8 mph 1011mb 53f 58f
4:36pm 3 7 mph 1011.1mb 53f 59f
4:30pm 5 7 mph 1011.1mb 53f 59f
4:24pm 6 7 mph 1011.1mb 53f 59f
4:18pm 6 8 mph 1011.1mb 53f 59f
4:12pm 6 8 mph 1011.1mb 53f 60f
4:06pm 6 8 mph 1011.1mb 53f 60f
4:00pm 6 7 mph 1011.1mb 53f 60f
3:36pm 6 9 mph 1011.3mb 53f 60f
3:30pm 3 7 mph 1011.3mb 53f 60f
3:24pm 3 6 mph 1011.3mb 53f 60f
3:18pm 5 10 mph 1011.3mb 53f 60f
3:12pm 8 11 mph 1011.3mb 53f 59f
3:06pm 7 8 mph 1011.3mb 53f 59f
3:00pm 7 8 mph 1011.5mb 53f 59f
2:36pm 6 8 mph 1011.7mb 53f 60f
2:30pm 6 8 mph 1011.8mb 53f 60f
2:24pm 6 8 mph 1011.8mb 53f 59f
2:18pm 8 10 mph 1011.9mb 52f 59f
2:12pm 8 9 mph 1011.9mb 52f 59f
2:06pm 6 9 mph 1011.8mb 52f 59f
2:00pm 7 9 mph 1011.9mb 52f 59f
1:36pm 5 7 mph 1011.9mb 52f 61f
1:30pm 6 9 mph 1012mb 52f 60f
1:24pm 3 6 mph 1012mb 52f 61f
1:18pm 5 7 mph 1012mb 52f 60f
1:12pm 6 8 mph 1012.1mb 52f 60f
1:06pm 2 5 mph 1012mb 52f 62f
1:00pm 1 2 mph 1011.9mb 52f 62f
12:36pm 6 7 mph 1012mb 52f 58f
12:30pm 7 8 mph 1012.1mb 52f 58f
12:24pm 5 6 mph 1012mb 52f 59f
12:18pm 2 5 mph 1012mb 52f 60f
12:12pm 5 8 mph 1012mb 52f 59f
12:06pm 7 8 mph 1012.1mb 52f 59f
12:00pm 5 6 mph 1012mb 52f 59f
11:36am 2 3 mph 1012mb 52f 58f
11:30am 2 3 mph 1011.9mb 52f 58f
11:24am 2
mph
1012mb 52f 58f
11:18am 2 3 mph 1011.9mb 52f 57f
11:12am 2 3 mph 1011.9mb 52f 58f
11:06am 1 2 mph 1011.9mb 52f 58f
11:00am 1 2 mph 1012mb 52f 58f
10:36am 1
mph
1012.1mb 52f 57f
10:30am  -  1 mph 1012.1mb 52f 58f
10:24am  -  2 mph 1012mb 52f 58f
10:18am 1 5 mph 1012.1mb 52f 57f
10:12am 3 5 mph 1012.2mb 52f 56f
10:06am 3 6 mph 1012.2mb 52f 56f
10:00am 5 6 mph 1012.2mb 52f 56f
8:36am 2
mph
1011.4mb 53f 56f
8:30am  -  1 mph 1011.5mb 53f 58f
8:24am  -  1 mph 1011.4mb 53f 58f
8:18am  -  2 mph 1011.4mb 53f 56f
8:12am  -  2 mph 1011.5mb 53f 56f
8:06am  -  2 mph 1011.5mb 53f 55f
8:00am  -  1 mph 1011.5mb 53f 56f
5:36am 2 3 mph - - -
5:30am 3 5 mph - - -
5:24am 3
mph
- - -
5:18am  -  3 mph - - -
5:12am  -  2 mph - - -
5:06am 2 3 mph - - -
5:00am 2 3 mph - - -
4:36am 1 2 mph 1010.6mb 53f 53f
4:30am 3
mph
1010.7mb 53f 52f
4:24am 2 3 mph 1010.6mb 53f 52f
4:18am  -  2 mph 1010.6mb 53f 53f
4:12am  -  3 mph 1010.5mb 53f 52f
4:06am  -  1 mph 1010.5mb 53f 53f
4:00am  -  2 mph 1010.4mb 53f 53f
3:54am 2
mph
1010.4mb 53f 53f
3:48am  -  1 mph 1010.4mb 53f 53f
3:36am  -  3 mph 1010.3mb 53f 53f
3:30am 3 5 mph 1010.4mb 53f 53f
3:24am 1
mph
1010.3mb 53f 54f
3:18am  -  1 mph 1010.3mb 53f 54f
3:12am  -  1 mph 1010.3mb 53f 54f
3:06am 1 3 mph 1010.3mb 53f 53f
3:00am 2 3 mph 1010.3mb 53f 55f
2:54am  -  2 mph 1010.3mb 53f 56f
2:48am 2
mph
1010.3mb 53f 56f
2:36am 1 5 mph 1010.2mb 53f 52f
2:30am 2 5 mph 1010.2mb 53f 53f
2:24am 2 3 mph 1010.1mb 53f 54f
2:18am 2
mph
1010mb 53f 53f
2:12am 2
mph
1010.1mb 53f 53f
2:06am 1 2 mph 1010mb 53f 53f
2:00am 2 3 mph 1010mb 53f 53f
1:54am 3
mph
1010.1mb 53f 52f
1:48am 2 3 mph 1010.2mb 53f 54f
1:36am  -  2 mph 1010.2mb 53f 54f
1:30am 2
mph
1010.3mb 53f 52f
1:24am  -  2 mph 1010.2mb 53f 54f
1:18am 1
mph
1010.1mb 53f 55f
1:12am  -  1 mph 1010.1mb 53f 55f
1:06am  -  1 mph 1010.2mb 53f 55f
1:00am 1 2 mph 1010.2mb 53f 54f
12:54am 1
mph
1010.2mb 53f 55f
12:48am  -  mph 1010.2mb 53f 55f
12:36am  -  1 mph 1010.2mb 53f 55f
12:30am  -  1 mph 1010.3mb 53f 55f
12:24am  -  3 mph 1010.2mb 53f 54f
12:18am 2
mph
1010.2mb 53f 54f
12:12am 2
mph
1010.1mb 53f 54f
12:06am  -  1 mph 1010.1mb 53f 55f
12:00am  -  1 mph 1010.1mb 53f 55f
Mon 09/15 11:54pm 1
mph
1010.2mb 53f 56f
11:48pm  -  mph 1010.2mb 53f 55f
9:36pm  -  mph 1009.4mb 53f 58f
9:30pm  -  mph 1009.4mb 53f 58f
9:24pm  -  mph 1009.3mb 53f 58f
9:18pm  -  mph 1009.2mb 53f 60f
9:12pm  -  mph 1009.3mb 53f 59f
9:06pm  -  mph 1009.4mb 53f 58f
9:00pm  -  mph 1009.3mb 53f 59f
8:54pm 2 3 mph 1009.3mb 53f 59f
8:48pm  -  2 mph 1009.2mb 53f 61f
8:36pm  -  mph 1009.1mb - 60f
8:30pm  -  mph 1009.1mb - 60f
8:24pm  -  mph 1009.1mb - 61f
8:18pm  -  mph 1009mb - 60f
8:12pm  -  mph 1009mb - 60f
8:06pm  -  mph 1009mb - 60f
8:00pm  -  mph 1008.9mb - 61f
7:54pm  -  mph 1008.9mb - 61f
7:48pm  -  mph 1008.9mb - 62f
7:36pm  -  mph 1008.9mb - -
7:30pm  -  mph 1008.9mb - -
7:24pm  -  1 mph 1008.9mb - -
7:18pm  -  1 mph 1009mb - -
7:12pm 1 2 mph 1008.9mb - -
7:06pm 1 2 mph 1008.9mb - -
7:00pm 1 2 mph 1008.9mb - -
6:54pm  -  1 mph 1008.9mb - -
6:48pm  -  1 mph 1009mb - -
6:36pm  -  1 mph 1008.9mb 53f 64f
6:30pm 1
mph
1008.9mb 53f 66f
6:24pm  -  1 mph 1008.9mb 53f 68f
6:18pm  -  2 mph 1009mb 53f 65f
6:12pm 2 3 mph 1009mb 53f 67f
6:06pm 1 2 mph 1008.9mb 53f 67f
6:00pm  -  2 mph 1008.9mb 53f 69f
5:54pm  -  mph 1008.9mb 53f 73f
5:48pm  -  mph 1009mb 53f 72f
5:36pm 1 2 mph 1009.2mb 53f 75f
5:30pm  -  1 mph 1009.2mb 53f 76f
5:24pm  -  1 mph 1009.2mb 53f 76f
5:18pm 1 2 mph 1009.2mb 53f 75f
5:12pm  -  2 mph 1009.2mb 53f 75f
5:06pm  -  3 mph 1009.2mb 53f 75f
5:00pm 1 2 mph 1009.3mb 53f 75f
4:54pm  -  2 mph 1009.4mb 53f 75f
4:48pm  -  3 mph 1009.4mb 53f 75f
4:36pm 2 5 mph 1009.6mb 53f 74f
4:30pm 2 6 mph 1009.6mb 53f 75f
4:24pm 2 5 mph 1009.6mb 53f 75f
4:18pm 3 7 mph 1009.7mb 53f 74f
4:12pm 3 6 mph 1009.7mb 53f 74f
4:06pm 3 6 mph 1009.7mb 53f 74f
4:00pm 3 5 mph 1009.8mb 53f 74f
3:54pm 3 7 mph 1009.7mb 53f 74f
3:48pm 3 6 mph 1009.8mb 53f 74f
3:36pm 3 7 mph 1009.9mb 53f 74f
3:30pm 3 6 mph 1010mb 53f 74f
3:24pm 3 6 mph 1010mb 53f 74f
3:18pm 3 6 mph 1010.1mb 53f 74f
3:12pm 3 6 mph 1010.2mb 53f 74f
3:06pm 3 7 mph 1010.2mb 53f 73f
3:00pm 5 7 mph 1010.3mb 53f 73f
2:54pm 3 6 mph 1010.3mb 53f 73f
2:48pm 5 7 mph 1010.4mb 53f 74f
2:36pm 3 6 mph 1010.5mb 53f 73f
2:30pm 2 6 mph 1010.5mb 53f 73f
2:24pm 2 5 mph 1010.6mb 53f 73f
2:18pm 1 5 mph 1010.6mb 53f 74f
2:12pm 2 6 mph 1010.7mb 53f 73f
2:06pm 3 6 mph 1010.7mb 53f 73f
2:00pm 3 7 mph 1010.8mb 53f 72f
1:54pm 3 7 mph 1010.8mb 53f 72f
1:48pm 5 8 mph 1010.9mb 53f 73f
1:36pm 6 9 mph 1011mb 53f 73f
1:30pm 2 6 mph 1011.1mb 53f 74f
1:24pm  -  2 mph 1011.2mb 52f 72f
1:18pm  -  2 mph 1011.3mb 52f 72f
1:12pm  -  2 mph 1011.3mb 52f 73f
1:06pm 1 7 mph 1011.4mb 52f 72f
1:00pm 2 6 mph 1011.4mb 52f 72f
12:54pm 6 7 mph 1011.4mb 52f 71f
12:48pm 5 7 mph 1011.4mb 52f 72f
12:36pm 6 7 mph 1011.5mb 52f 71f
12:30pm 3 7 mph 1011.5mb 52f 71f
12:24pm 2 6 mph 1011.6mb 52f 71f
12:18pm 1 6 mph 1011.7mb 52f 71f
12:12pm 3 6 mph 1011.7mb 52f 70f
12:06pm 5 7 mph 1011.7mb 52f 70f
12:00pm 6 8 mph 1011.7mb 52f 69f
11:54am 6 9 mph 1011.7mb 52f 69f
11:48am 6 9 mph 1011.7mb 52f 68f
11:36am 5 9 mph 1011.8mb 52f 69f
11:30am 3 5 mph 1011.9mb 52f 69f
11:24am 2 6 mph 1011.9mb 52f 68f
11:18am 3 6 mph 1011.9mb 52f 69f
11:12am 3 8 mph 1011.9mb 52f 68f
11:06am 3 7 mph 1011.9mb 52f 67f
11:00am 3 7 mph 1012mb 52f 67f
10:54am 5 8 mph 1012mb 52f 67f
10:48am 5 6 mph 1012mb 52f 66f
10:36am 2 5 mph 1012.1mb 52f 65f
10:30am  -  3 mph 1012.1mb 52f 65f
10:24am 2 5 mph 1012.2mb 52f 65f
10:18am 1 6 mph 1012.2mb 52f 64f
10:12am  -  3 mph 1012.3mb 52f 62f
10:06am 2 3 mph 1012.3mb 52f 60f
10:00am 2 3 mph 1012.3mb 52f 59f
9:54am 2 3 mph 1012.3mb 52f 58f
9:48am 2 3 mph 1012.3mb 52f 57f
9:36am 2 3 mph 1012.3mb 52f 56f
9:30am 2 3 mph 1012.3mb 52f 56f
9:24am 2
mph
1012.3mb 52f 56f
9:18am 1 3 mph 1012.3mb 52f 56f
9:12am 2 3 mph 1012.3mb 52f 56f
9:06am 2 3 mph 1012.2mb 52f 56f
9:00am 2
mph
1012.2mb 52f 56f
8:54am 1 2 mph 1012.2mb 52f 55f
8:48am 1 2 mph 1012.2mb 52f 55f
8:36am 1 2 mph 1012.2mb 52f 55f
8:30am 1
mph
1012.3mb 52f 55f
8:24am 1
mph
1012.3mb 52f 56f
8:18am  -  1 mph 1012.3mb 52f 58f
8:12am  -  1 mph 1012.4mb 52f 58f
8:06am  -  1 mph 1012.4mb 52f 55f
8:00am 2
mph
1012.4mb 52f 53f
7:54am  -  2 mph 1012.4mb 52f 53f
7:48am 2
mph
1012.4mb 52f 52f
7:36am 1 2 mph 1012.4mb 52f 52f
7:30am 1 2 mph 1012.4mb 52f 52f
7:24am 1 2 mph 1012.4mb 53f 51f
7:18am 2
mph
1012.4mb 53f 51f
7:12am 1 2 mph 1012.4mb 53f 50f
7:06am 2
mph
1012.3mb 53f 49f
7:00am 2
mph
1012.3mb 53f 49f
6:54am 1 2 mph 1012.3mb 53f 50f
6:48am  -  2 mph 1012.3mb 53f 51f
6:36am  -  1 mph 1012.2mb 53f -
6:30am 1 2 mph 1012.2mb 53f -
6:24am  -  1 mph 1012.2mb 53f -
6:18am  -  2 mph 1012.1mb 53f -
6:12am 2 3 mph 1012.1mb 53f -
6:06am 2
mph
1012.1mb 53f -
6:00am  -  1 mph 1012mb 53f -
5:54am  -  1 mph 1012mb 53f -
5:48am  -  1 mph 1012mb 53f -
5:36am 2 3 mph 1012mb 53f 50f
5:30am 1 2 mph 1012mb 53f 50f
5:24am 1 2 mph 1012mb 53f 51f
5:18am  -  1 mph 1012mb 53f 51f
5:12am  -  2 mph 1012mb 53f 52f
5:06am  -  mph 1012mb 53f 50f
5:00am  -  2 mph 1012.1mb 53f 50f
4:54am 1 2 mph 1012.1mb 53f 50f
4:48am 2 3 mph 1012mb 53f 51f
4:36am  -  mph 1012mb 53f 51f
4:30am  -  1 mph 1012mb 53f 51f
4:24am 1 3 mph 1012.1mb 53f 50f
4:18am 3
mph
1012.1mb 53f 50f
4:12am 2
mph
1012mb 53f 51f
4:06am 1 2 mph 1012mb 53f 51f
4:00am 1 2 mph 1011.9mb 53f 51f
3:54am  -  2 mph 1011.9mb 53f 51f
3:48am 1 2 mph 1011.9mb 53f 51f
3:36am  -  1 mph 1011.9mb 53f 51f
3:30am  -  2 mph 1011.9mb 53f 51f
3:24am 2
mph
1011.8mb 53f 51f
3:18am  -  1 mph 1011.8mb 53f 52f
3:12am 1 2 mph 1011.8mb 53f 52f
3:06am  -  mph 1011.8mb 53f 53f
3:00am  -  1 mph 1011.8mb 53f 53f
2:54am  -  1 mph 1011.8mb 53f 53f
2:48am  -  1 mph 1011.9mb 53f 52f
2:36am  -  2 mph 1011.9mb 53f 53f
2:30am 1
mph
1011.9mb 53f 53f
2:24am 1
mph
1011.9mb 53f 53f
2:18am  -  1 mph 1011.9mb 53f 53f
2:12am 1 2 mph 1011.9mb 53f 52f
2:06am 2
mph
1011.8mb 53f 53f
2:00am 1 2 mph 1011.8mb 53f 52f
1:54am  -  1 mph 1011.8mb 53f 52f
1:48am  -  2 mph 1011.9mb 53f 52f
1:36am 3
mph
1011.8mb 53f 51f
1:30am 1 2 mph 1011.8mb 53f 53f
1:24am 1 2 mph 1011.7mb 53f 53f
1:18am 2
mph
1011.7mb 53f 52f
1:12am 2
mph
1011.7mb 53f 53f
1:06am 1 2 mph 1011.7mb 53f 54f
1:00am  -  1 mph 1011.7mb 53f 53f
12:54am  -  2 mph 1011.7mb 53f 53f
12:48am 2
mph
1011.8mb 53f 52f
12:36am  -  1 mph 1011.8mb 53f 54f
12:30am  -  1 mph 1011.7mb 53f 54f
12:24am 1 3 mph 1011.7mb 53f 53f
12:18am 1 3 mph 1011.7mb 53f 54f
12:12am  -  1 mph 1011.7mb 53f 56f
12:06am 1
mph
1011.6mb 53f 55f
12:00am  -  1 mph 1011.6mb 53f 55f
Sun 09/14 11:54pm  -  1 mph 1011.6mb 53f 55f
11:48pm  -  1 mph 1011.5mb 53f 55f
11:36pm  -  1 mph 1011.5mb 53f 55f
11:30pm  -  3 mph 1011.5mb 53f 55f
11:24pm 2 3 mph 1011.5mb 53f 55f
11:18pm 2
mph
1011.4mb 53f 55f
11:12pm 2 5 mph 1011.4mb 53f 55f
11:06pm  -  3 mph 1011.3mb 53f 56f
11:00pm 3 5 mph 1011.4mb 53f 56f
10:54pm  -  2 mph 1011.3mb 52f 56f
10:48pm  -  2 mph 1011.3mb 52f 56f
10:36pm  -  1 mph 1011.2mb 52f 57f
10:30pm  -  1 mph 1011.2mb 52f 57f
10:24pm  -  mph 1011.2mb 52f 57f
10:18pm  -  2 mph 1011.2mb 52f 57f
10:12pm  -  1 mph 1011.2mb 52f 57f
10:06pm 1 2 mph 1011.1mb 52f 56f
10:00pm 1 3 mph 1011.1mb 52f 56f
9:54pm  -  1 mph 1011.1mb 52f 57f
9:48pm  -  mph 1011.1mb 52f 57f
9:36pm  -  1 mph 1011.1mb 52f 58f
9:30pm  -  1 mph 1011.1mb 52f 59f
9:24pm  -  1 mph 1011.1mb 52f 59f
9:18pm  -  mph 1011.1mb 53f 59f
9:12pm  -  mph 1011.1mb 53f 59f
9:06pm  -  mph 1011.2mb 53f 59f
9:00pm  -  mph 1011.2mb 53f 59f
8:54pm  -  1 mph 1011.2mb 53f 60f
8:48pm 1
mph
1011.2mb 53f 60f
8:36pm  -  2 mph 1011.1mb 53f 60f
8:30pm  -  1 mph 1011.1mb 53f 60f
8:24pm  -  1 mph 1011.1mb 53f 59f
8:18pm 1 2 mph 1011mb 53f 58f
8:12pm  -  1 mph 1011mb 53f 58f
8:06pm  -  2 mph 1011mb 53f 58f
8:00pm  -  1 mph 1010.9mb 53f 59f
7:54pm  -  3 mph 1010.9mb 53f 60f
7:48pm 2 3 mph 1010.9mb 53f 62f
7:36pm  -  2 mph 1010.9mb 53f 63f
7:30pm 1 2 mph 1010.9mb 53f 62f
7:24pm  -  mph 1010.9mb 53f 63f
7:18pm  -  1 mph 1010.9mb 53f 64f
7:12pm  -  2 mph 1010.9mb 53f 64f
7:06pm  -  1 mph 1010.9mb 53f 65f
7:00pm  -  1 mph 1011mb 53f 65f
6:54pm 1 2 mph 1011mb 53f 66f
6:48pm 1 2 mph 1011mb 53f 68f
6:36pm 2 3 mph 1011.1mb 53f 71f
6:30pm  -  3 mph 1011.1mb 53f 72f
6:24pm  -  3 mph 1011.1mb 53f 72f
6:18pm 1 2 mph 1011.1mb 53f 72f
6:12pm  -  7 mph 1011.1mb 53f 73f
6:06pm  -  6 mph 1011.1mb 53f 73f
6:00pm 2 6 mph 1011mb 53f 72f
5:54pm 3 7 mph 1011mb 53f 72f
5:48pm 3 6 mph 1011mb 53f 72f
5:36pm 2 6 mph 1011.1mb 53f 73f
5:30pm 2 6 mph 1011.2mb 53f 73f
5:24pm 2 6 mph 1011.3mb 53f 73f
5:18pm 2 5 mph 1011.4mb 53f 73f
5:12pm 1 6 mph 1011.4mb 53f 73f
5:06pm 2 5 mph 1011.5mb 53f 74f
5:00pm 2 3 mph 1011.5mb 53f 74f
4:54pm 1 5 mph 1011.6mb 53f 73f
4:48pm  -  5 mph 1011.6mb 53f 74f
4:36pm  -  5 mph 1011.7mb 53f 73f
4:30pm 1 3 mph 1011.7mb 53f 73f
4:24pm 3 5 mph 1011.7mb 53f 73f
4:18pm 3 6 mph 1011.8mb 53f 73f
4:12pm 5 6 mph 1011.8mb 53f 73f
4:06pm 3 6 mph 1011.9mb 53f 73f
4:00pm 5 6 mph 1012mb 53f 73f
3:54pm 5 6 mph 1012mb 53f 73f
3:48pm 3 6 mph 1012mb 53f 73f
3:36pm 3 6 mph 1012.1mb 53f 74f
3:30pm 3 6 mph 1012.2mb 53f 73f
3:24pm 5 7 mph 1012.2mb 53f 73f
3:18pm 2 6 mph 1012.3mb 53f 74f
3:12pm 2 5 mph 1012.3mb 53f 73f
3:06pm 1 5 mph 1012.4mb 53f 73f
3:00pm 2 6 mph 1012.4mb 53f 73f
2:54pm 2 3 mph 1012.5mb 53f 72f
2:48pm 2 6 mph 1012.5mb 53f 73f
2:36pm 1 6 mph 1012.6mb 53f 73f
2:30pm 2 7 mph 1012.7mb 53f 72f
2:24pm 2 6 mph 1012.8mb 53f 72f
2:18pm 1 5 mph 1012.8mb 53f 73f
2:12pm 1 5 mph 1012.9mb 53f 72f
2:06pm 2 6 mph 1012.9mb 53f 71f
2:00pm 5 7 mph 1013mb 53f 71f
1:54pm 1 5 mph 1013.1mb 53f 72f
1:48pm 1 5 mph 1013mb 53f 72f
1:36pm 1 5 mph 1013.1mb 52f 71f
1:30pm 3 6 mph 1013.1mb 52f 72f
1:24pm 3 7 mph 1013.1mb 52f 71f
1:18pm 3 6 mph 1013.1mb 52f 71f
1:12pm 3 6 mph 1013.1mb 52f 70f
1:06pm 1 6 mph 1013.1mb 52f 71f
1:00pm 3 7 mph 1013.2mb 52f 70f
12:54pm 5 7 mph 1013.2mb 52f 70f
12:48pm 3 6 mph 1013.3mb 52f 70f
12:36pm 3 8 mph 1013.4mb 52f 70f
12:30pm 2 5 mph 1013.5mb 52f 69f
12:24pm 3 7 mph 1013.5mb 52f 70f
12:18pm 2 6 mph 1013.5mb 52f 69f
12:12pm 3 7 mph 1013.4mb 52f 69f
12:06pm 3 7 mph 1013.5mb 52f 68f
12:00pm 3 8 mph 1013.5mb 52f 69f
11:54am 5 9 mph 1013.5mb 52f 68f
11:48am 5 8 mph 1013.5mb 52f 67f
11:36am 2 7 mph 1013.5mb 52f 68f
11:30am 3 7 mph 1013.6mb 52f 67f
11:24am 3 7 mph 1013.6mb 52f 67f
11:18am 3 8 mph 1013.7mb 52f 66f
11:12am 3 7 mph 1013.7mb 52f 67f
11:06am 2 8 mph 1013.7mb 52f 67f
11:00am 1 3 mph 1013.7mb 52f 66f
10:54am 1 5 mph 1013.8mb 52f 66f
10:48am 1 3 mph 1013.8mb 52f 63f
10:36am 3 5 mph 1013.9mb 52f 61f
10:30am 1 2 mph 1013.9mb 52f 61f
10:24am 1 3 mph 1013.9mb 52f 61f
10:18am 2 3 mph 1013.9mb 52f 59f
10:12am 1 3 mph 1013.9mb 52f 59f
10:06am 2
mph
1013.9mb 52f 60f
10:00am 1 3 mph 1013.9mb 52f 60f
9:54am 1 2 mph 1014mb 52f 59f
9:48am 1 2 mph 1014mb 52f 58f
9:36am 1 2 mph 1014mb 52f 59f
9:30am  -  2 mph 1013.9mb 52f 59f
9:24am 1 3 mph 1013.9mb 52f 58f
9:18am 2 3 mph 1013.9mb 52f 57f
9:12am  -  2 mph 1013.8mb 52f 58f
9:06am 1 2 mph 1013.8mb 52f 57f
9:00am  -  2 mph 1013.8mb 52f 57f
8:54am 1 2 mph 1013.8mb 52f 56f
8:48am 1 2 mph 1013.7mb 52f 55f
8:36am 2
mph
1013.7mb 52f 54f
8:30am 2
mph
1013.7mb 52f 54f
8:24am 2
mph
1013.7mb 52f 54f
8:18am 1
mph
1013.7mb 52f 55f
8:12am  -  1 mph 1013.7mb 52f 57f
8:06am  -  1 mph 1013.6mb 52f 56f
8:00am  -  1 mph 1013.6mb 52f 55f
7:54am 1
mph
1013.6mb 52f 54f
7:48am  -  1 mph 1013.6mb 52f 55f
7:36am  -  1 mph 1013.6mb 52f 55f
7:30am  -  1 mph 1013.5mb 52f 53f
7:24am  -  1 mph 1013.5mb 52f 53f
7:18am  -  2 mph 1013.5mb 52f 52f
7:12am  -  1 mph 1013.5mb 52f 51f
7:06am  -  1 mph 1013.4mb 52f 51f
7:00am  -  1 mph 1013.3mb 52f 50f
6:54am  -  2 mph 1013.3mb 52f 50f
6:48am 1 3 mph 1013.2mb 52f 49f
6:36am 1 2 mph 1013.1mb 52f 50f
6:30am 2
mph
1013.1mb 52f 50f
6:24am 1 2 mph 1013.1mb 52f 50f
6:18am 2 3 mph 1013mb 52f 50f
6:12am 2 3 mph 1013mb 52f 49f
6:06am 2 5 mph 1013mb 52f 48f
6:00am 3 5 mph 1013mb 52f 49f
5:54am 2
mph
1012.9mb 52f 49f
5:48am  -  2 mph 1013mb 52f 49f
5:36am 1 2 mph 1012.9mb 52f 48f
5:30am  -  1 mph 1012.9mb 52f 49f
5:24am  -  3 mph 1012.9mb 52f 48f
5:18am 2 3 mph 1013mb 52f 49f
5:12am  -  1 mph 1012.9mb 52f 50f
5:06am  -  1 mph 1012.9mb 52f 50f
5:00am  -  1 mph 1012.9mb 52f 49f
4:54am  -  2 mph 1012.9mb 52f 49f
4:48am 2
mph
1012.9mb 52f 49f
4:36am 2 3 mph 1012.8mb 52f 49f
4:30am 1 2 mph 1012.8mb 52f 50f
4:24am  -  1 mph 1012.8mb 52f 51f
4:18am 1 2 mph 1012.7mb 52f 50f
4:12am  -  1 mph 1012.7mb 52f 50f
4:06am  -  2 mph 1012.6mb 52f 49f
4:00am 2
mph
1012.6mb 52f 50f
3:54am 2 3 mph 1012.6mb 52f 51f
3:48am 1 2 mph 1012.7mb 52f 49f
3:36am 2
mph
1012.6mb 52f 49f
3:30am 1 2 mph 1012.6mb 52f 49f
3:24am  -  mph 1012.5mb 52f 50f
3:18am  -  mph 1012.5mb 52f 50f
3:12am  -  2 mph 1012.4mb 52f 50f
3:06am  -  mph 1012.4mb 52f 51f
3:00am  -  1 mph 1012.4mb 52f 50f
2:54am 2
mph
1012.4mb 52f 51f
2:48am  -  1 mph 1012.4mb 52f 51f
2:36am  -  1 mph 1012.4mb 52f 50f
2:30am 2
mph
1012.4mb 52f 49f
2:24am 2
mph
1012.4mb 52f 51f
2:18am  -  1 mph 1012.4mb 52f 51f
2:12am 1 3 mph 1012.3mb 52f 50f
2:06am 3 5 mph 1012.4mb 52f 50f
2:00am 5
mph
1012.4mb 52f 50f
1:54am 5
mph
1012.4mb 52f 50f
1:48am 2 3 mph 1012.4mb 52f 51f
1:36am 2 3 mph 1012.3mb 52f 51f
1:30am 3 5 mph 1012.3mb 52f 50f
1:24am 3
mph
1012.3mb 52f 52f
1:18am  -  2 mph 1012.3mb 52f 52f
1:12am  -  1 mph 1012.3mb 52f 53f
1:06am  -  3 mph 1012.2mb 52f 51f
1:00am 2 3 mph 1012.2mb 52f 52f
12:54am  -  mph 1012.2mb 52f 53f
12:48am  -  1 mph 1012.2mb 52f 53f
12:36am 2
mph
1012.2mb 52f 52f
12:30am 2
mph
1012.1mb 52f 52f
12:24am 1 2 mph 1012.1mb 52f 53f
12:18am  -  1 mph 1012.1mb 52f 53f
12:12am 1 2 mph 1012.1mb 52f 52f
12:06am 1 2 mph 1012.1mb 52f 53f
12:00am  -  1 mph 1012.1mb 52f 53f
Sat 09/13 11:54pm  -  1 mph 1012mb 52f 54f
11:48pm  -  1 mph 1012mb 52f 53f
11:18pm  -  mph 1011.8mb 52f -
11:00pm  -  mph 1011.8mb 52f -
10:54pm  -  mph 1011.8mb 52f -
10:48pm  -  mph 1011.8mb 52f -
10:36pm  -  2 mph 1011.7mb 52f 56f
10:30pm 2
mph
1011.7mb 52f 55f
10:24pm 2 3 mph 1011.6mb 52f 54f
10:18pm 2 3 mph 1011.6mb 52f 55f
10:12pm 2 3 mph 1011.6mb 52f 55f
10:06pm 1 2 mph 1011.6mb 52f 58f
10:00pm 2 3 mph 1011.5mb 52f 58f
9:54pm 2 3 mph 1011.5mb 52f 56f
9:48pm 1 2 mph 1011.5mb 52f 57f
9:36pm  -  2 mph 1011.4mb 52f 58f
9:30pm  -  1 mph 1011.4mb 52f 58f
9:24pm  -  mph 1011.4mb 52f 58f
9:18pm  -  1 mph 1011.4mb 52f 58f
9:12pm 1
mph
1011.4mb 52f 58f
9:06pm  -  2 mph 1011.3mb 52f 58f
9:00pm 1 2 mph 1011.4mb 52f 58f
8:54pm  -  1 mph - - 58f
8:48pm  -  1 mph - - 58f
8:30pm  -  mph 1011.4mb 52f -
8:24pm  -  mph 1011.4mb 52f -
8:18pm  -  mph 1011.3mb 52f -
8:12pm  -  mph 1011.3mb 52f -
8:06pm  -  mph 1011.3mb 52f -
8:00pm  -  mph 1011.3mb 52f -
7:30pm  -  mph 1011.4mb 52f -
7:12pm  -  mph 1011.4mb 52f -
7:06pm  -  mph 1011.5mb 52f -
6:36pm  -  3 mph 1011.7mb 52f 71f
6:30pm 1 6 mph 1011.7mb 52f 71f
6:24pm  -  3 mph 1011.8mb 52f 71f
6:18pm 2 6 mph 1011.8mb 52f 72f
6:12pm 1 3 mph 1011.8mb 53f 72f
6:06pm 3 6 mph 1011.8mb 53f 72f
6:00pm 2 6 mph 1011.9mb 53f 72f
5:54pm 2 6 mph 1012mb 53f 72f
5:48pm 2 6 mph 1012mb 53f 72f
5:36pm 2 7 mph 1012.2mb 53f 72f
5:30pm 2 6 mph 1012.3mb 53f 72f
5:24pm 5 7 mph 1012.3mb 53f 72f
5:18pm 3 8 mph 1012.3mb 53f 71f
5:12pm 2 7 mph 1012.3mb 53f 71f
5:06pm 2 6 mph 1012.4mb 52f 72f
5:00pm 3 8 mph 1012.4mb 52f 72f
4:54pm 3 6 mph 1012.4mb 52f 72f
4:48pm 2 6 mph 1012.4mb 52f 72f
4:36pm 3 6 mph 1012.6mb 53f 71f
4:30pm 2 7 mph 1012.6mb 53f 72f
4:24pm 3 6 mph 1012.6mb 53f 72f
4:18pm 2 7 mph 1012.7mb 53f 71f
4:12pm 5 7 mph 1012.7mb 53f 71f
4:06pm 5 6 mph 1012.7mb 53f 71f
4:00pm 3 6 mph 1012.8mb 53f 72f
3:54pm 3 6 mph 1012.9mb 52f 71f
3:48pm 3 6 mph 1012.9mb 52f 71f
3:36pm 3 6 mph 1013mb 52f 71f
3:30pm 3 6 mph 1013.1mb 52f 71f
3:24pm 2 6 mph 1013.1mb 53f 71f
3:18pm 3 6 mph 1013.1mb 53f 71f
3:12pm 3 6 mph 1013.1mb 53f 71f
3:06pm 3 6 mph 1013.2mb 53f 71f
3:00pm 5 6 mph 1013.2mb 53f 70f
2:54pm 3 7 mph 1013.3mb 53f 70f
2:48pm 6 8 mph 1013.4mb 53f 70f
2:36pm 7 8 mph 1013.6mb 53f 71f
2:30pm 6 9 mph 1013.6mb 53f 70f
2:24pm 6 8 mph 1013.7mb 53f 71f
2:18pm 2 7 mph 1013.7mb 53f 70f
2:12pm 1 5 mph 1013.8mb 53f 70f
2:06pm 5 6 mph 1013.9mb 53f 70f
2:00pm 5 7 mph 1013.9mb 53f 70f
1:54pm 5 7 mph 1014mb 53f 69f
1:48pm 6 8 mph 1014.1mb 52f 69f
1:36pm 5 8 mph 1014.2mb 52f 70f
1:30pm 3 6 mph 1014.2mb 52f 69f
1:24pm 3 8 mph 1014.3mb 52f 70f
1:18pm 2 6 mph 1014.3mb 52f 70f
1:12pm 2 6 mph 1014.3mb 52f 69f
1:06pm 2 6 mph 1014.4mb 52f 69f
1:00pm 2 7 mph 1014.4mb 52f 69f
12:54pm 3 7 mph 1014.4mb 52f 69f
12:48pm 2 5 mph 1014.5mb 52f 69f
12:36pm 2 6 mph 1014.6mb 52f 69f
12:30pm 3 7 mph 1014.7mb 52f 69f
12:24pm 3 6 mph 1014.8mb 52f 69f
12:18pm 3 6 mph 1014.8mb 52f 69f
12:12pm 3 7 mph 1014.9mb 52f 69f
12:06pm 2 7 mph 1015mb 52f 69f